Airfield :
LOGIN :

Register | Disclaimer

   EN    FR    IT 

 










Legend :    VFR   Marginal VFR   IFR   Intensive IFR   Very Intensive IFR
Visi :
Ceiling :
>= 8 km
>= 3000ft
5 to 8 km
1000 to 3000 ft
1500m to 5 km
500 to 1000 ft
800 to 1500m
200 to 500 ft
< 800m
< 200 ft
Symbols :   Thunderstorms  Fog  Heavy snow  Heavy precipitations  Wind > 20 kt
SIGMETs :     Misc.  Thunderstorms  Icing  Turbulence  Mountain Waves  Volcanic Ashes






- Airport Elevation : 348 ft
- IATA code : STN


EGSS - London Stansted

CURRENT METAR :
  • 300820Z AUTO 21009KT 0350 R22/0600N FG VV/// 10/10 Q1008

EXPIRED METARs :
  • 300750Z AUTO 21008KT 0350 R22/0900U FG VV/// 09/09 Q1008
  • 300720Z AUTO 23007KT 0150 R22/0325N FG VV/// 09/09 Q1008
  • 300650Z AUTO 24005KT 0150 R22/0350N FG VV/// 09/09 Q1009
  • 300620Z AUTO 23005KT 0150 R22/0375N FG VV/// 09/09 Q1009
  • 300550Z AUTO 25004KT 0150 R22/0400N FG VV/// 09/09 Q1009

TAF TAF EGSS
Valid from the 30 at 06:00 until the 01 at 12:00 UTC


300457Z 3006/0112 26003KT 0200 FG VV///
PROB30
TEMPO 3006/3008 1500 BR SCT002
BECMG 3008/3010 20012KT 9999 NSW FEW022
BECMG 3013/3016 20020G32KT
TEMPO 3015/3022 6000 RA BKN008
PROB40
TEMPO 3016/3020 3000 +RA
BECMG 3020/3023 26012KT
ATIS : +44 1279 669 325



MET'MAP, your aeronautical weather chart ! - Copyright ORBIFLY December 2007 - Disclaimer

ORBIFLY MET'MAP TEAM :

Programming & Development : Alexandra Zaïnal
Original concept : Baudouin d'Aumeries
Technical & hardware support : Manuel Goepfert
Assistance : Marc-Olivier Méhu




SOURCES & CREDITS :

   NOAA